sensor_id;sensor_type;location;lat;lon;timestamp;pressure;altitude;pressure_sealevel;temperature;humidity
46682;BME280;34101;53.430;-2.224;2023-02-18T00:00:33;41742.41;;;-148.94;100.00
46682;BME280;34101;53.430;-2.224;2023-02-18T00:03:01;41962.73;;;-148.94;100.00
46682;BME280;34101;53.430;-2.224;2023-02-18T00:05:29;41842.54;;;-148.94;100.00
46682;BME280;34101;53.430;-2.224;2023-02-18T00:07:57;41914.83;;;-148.94;100.00
46682;BME280;34101;53.430;-2.224;2023-02-18T00:10:24;41868.85;;;-148.94;100.00
46682;BME280;34101;53.430;-2.224;2023-02-18T00:12:52;41558.62;;;-148.94;100.00
46682;BME280;34101;53.430;-2.224;2023-02-18T00:15:19;41636.14;;;-148.94;100.00
46682;BME280;34101;53.430;-2.224;2023-02-18T00:17:46;41388.64;;;-148.94;100.00
46682;BME280;34101;53.430;-2.224;2023-02-18T00:20:14;41378.80;;;-148.94;100.00
46682;BME280;34101;53.430;-2.224;2023-02-18T00:22:42;41330.40;;;-148.94;100.00
46682;BME280;34101;53.430;-2.224;2023-02-18T00:25:09;40965.43;;;-148.94;100.00
46682;BME280;34101;53.430;-2.224;2023-02-18T00:27:37;41166.69;;;-148.94;100.00
46682;BME280;34101;53.430;-2.224;2023-02-18T00:30:06;41150.21;;;-148.94;100.00
46682;BME280;34101;53.430;-2.224;2023-02-18T00:32:34;41274.85;;;-148.94;100.00
46682;BME280;34101;53.430;-2.224;2023-02-18T00:35:02;41193.89;;;-148.94;100.00
46682;BME280;34101;53.430;-2.224;2023-02-18T00:37:29;41529.50;;;-148.94;100.00
46682;BME280;34101;53.430;-2.224;2023-02-18T00:39:56;41113.44;;;-148.94;100.00
46682;BME280;34101;53.430;-2.224;2023-02-18T00:42:24;41405.62;;;-148.94;100.00
46682;BME280;34101;53.430;-2.224;2023-02-18T00:44:51;41262.97;;;-148.94;100.00
46682;BME280;34101;53.430;-2.224;2023-02-18T00:47:19;41173.84;;;-148.94;100.00
46682;BME280;34101;53.430;-2.224;2023-02-18T00:49:47;41017.92;;;-148.94;100.00
46682;BME280;34101;53.430;-2.224;2023-02-18T00:52:14;41092.49;;;-148.94;100.00
46682;BME280;34101;53.430;-2.224;2023-02-18T00:54:41;41005.28;;;-148.94;100.00
46682;BME280;34101;53.430;-2.224;2023-02-18T00:57:09;41109.48;;;-148.94;100.00
46682;BME280;34101;53.430;-2.224;2023-02-18T00:59:36;40795.35;;;-148.94;100.00
46682;BME280;34101;53.430;-2.224;2023-02-18T01:02:03;40876.05;;;-148.94;100.00
46682;BME280;34101;53.430;-2.224;2023-02-18T01:04:31;40612.63;;;-148.94;100.00
46682;BME280;34101;53.430;-2.224;2023-02-18T01:06:58;40743.63;;;-148.94;100.00
46682;BME280;34101;53.430;-2.224;2023-02-18T01:09:26;40669.19;;;-148.94;100.00
46682;BME280;34101;53.430;-2.224;2023-02-18T01:11:53;40598.84;;;-148.94;100.00
46682;BME280;34101;53.430;-2.224;2023-02-18T01:14:20;40493.12;;;-148.94;100.00
46682;BME280;34101;53.430;-2.224;2023-02-18T01:16:48;41013.58;;;-148.94;100.00
46682;BME280;34101;53.430;-2.224;2023-02-18T01:19:15;40881.92;;;-148.94;100.00
46682;BME280;34101;53.430;-2.224;2023-02-18T01:21:43;41238.71;;;-148.94;100.00
46682;BME280;34101;53.430;-2.224;2023-02-18T01:24:10;41249.82;;;-148.94;100.00
46682;BME280;34101;53.430;-2.224;2023-02-18T01:26:38;41323.76;;;-148.94;100.00
46682;BME280;34101;53.430;-2.224;2023-02-18T01:29:05;40980.89;;;-148.94;100.00
46682;BME280;34101;53.430;-2.224;2023-02-18T01:31:32;40894.31;;;-148.94;100.00
46682;BME280;34101;53.430;-2.224;2023-02-18T01:34:00;40524.02;;;-148.94;100.00
46682;BME280;34101;53.430;-2.224;2023-02-18T01:36:27;40383.06;;;-148.94;100.00
46682;BME280;34101;53.430;-2.224;2023-02-18T01:38:54;40549.17;;;-148.94;100.00
46682;BME280;34101;53.430;-2.224;2023-02-18T01:41:22;40593.35;;;-148.94;100.00
46682;BME280;34101;53.430;-2.224;2023-02-18T01:44:10;40403.74;;;-148.94;100.00
46682;BME280;34101;53.430;-2.224;2023-02-18T01:46:37;40452.52;;;-148.94;100.00
46682;BME280;34101;53.430;-2.224;2023-02-18T01:49:06;40447.41;;;-148.94;100.00
46682;BME280;34101;53.430;-2.224;2023-02-18T01:51:36;40498.74;;;-148.94;100.00
46682;BME280;34101;53.430;-2.224;2023-02-18T01:54:07;40474.10;;;-148.94;100.00
46682;BME280;34101;53.430;-2.224;2023-02-18T01:56:39;40897.25;;;-148.94;100.00
46682;BME280;34101;53.430;-2.224;2023-02-18T01:59:10;41255.95;;;-148.94;100.00
46682;BME280;34101;53.430;-2.224;2023-02-18T02:01:39;41017.15;;;-148.94;100.00
46682;BME280;34101;53.430;-2.224;2023-02-18T02:04:07;41290.56;;;-148.94;100.00
46682;BME280;34101;53.430;-2.224;2023-02-18T02:06:35;41311.63;;;-148.94;100.00
46682;BME280;34101;53.430;-2.224;2023-02-18T02:09:04;41165.15;;;-148.94;100.00
46682;BME280;34101;53.430;-2.224;2023-02-18T02:11:45;41845.35;;;-148.94;100.00
46682;BME280;34101;53.430;-2.224;2023-02-18T02:14:27;42213.34;;;-148.94;100.00
46682;BME280;34101;53.430;-2.224;2023-02-18T02:17:02;42029.53;;;-148.94;100.00
46682;BME280;34101;53.430;-2.224;2023-02-18T02:23:35;41866.94;;;-148.94;100.00
46682;BME280;34101;53.430;-2.224;2023-02-18T02:27:16;41667.82;;;-148.94;100.00
46682;BME280;34101;53.430;-2.224;2023-02-18T02:30:00;41743.81;;;-148.94;100.00
46682;BME280;34101;53.430;-2.224;2023-02-18T02:32:44;41424.27;;;-148.94;100.00
46682;BME280;34101;53.430;-2.224;2023-02-18T02:35:21;41692.85;;;-148.94;100.00
46682;BME280;34101;53.430;-2.224;2023-02-18T02:37:55;42031.58;;;-148.94;100.00
46682;BME280;34101;53.430;-2.224;2023-02-18T02:40:30;41856.97;;;-148.94;100.00
46682;BME280;34101;53.430;-2.224;2023-02-18T02:43:08;42273.76;;;-148.94;100.00
46682;BME280;34101;53.430;-2.224;2023-02-18T02:45:47;42157.90;;;-148.94;100.00
46682;BME280;34101;53.430;-2.224;2023-02-18T02:48:24;42031.45;;;-148.94;100.00
46682;BME280;34101;53.430;-2.224;2023-02-18T02:51:02;42117.03;;;-148.94;100.00
46682;BME280;34101;53.430;-2.224;2023-02-18T02:53:34;42138.49;;;-148.94;100.00
46682;BME280;34101;53.430;-2.224;2023-02-18T02:56:02;41980.48;;;-148.94;100.00
46682;BME280;34101;53.430;-2.224;2023-02-18T02:58:31;41967.20;;;-148.94;100.00
46682;BME280;34101;53.430;-2.224;2023-02-18T03:01:13;42108.09;;;-148.94;100.00
46682;BME280;34101;53.430;-2.224;2023-02-18T03:03:53;42142.32;;;-148.94;100.00
46682;BME280;34101;53.430;-2.224;2023-02-18T03:06:41;42204.40;;;-148.94;100.00
46682;BME280;34101;53.430;-2.224;2023-02-18T03:09:16;42026.98;;;-148.94;100.00
46682;BME280;34101;53.430;-2.224;2023-02-18T03:11:53;41799.37;;;-148.94;100.00
46682;BME280;34101;53.430;-2.224;2023-02-18T03:14:28;42432.16;;;-148.94;100.00
46682;BME280;34101;53.430;-2.224;2023-02-18T03:17:00;42111.92;;;-148.94;100.00
46682;BME280;34101;53.430;-2.224;2023-02-18T03:19:33;42113.20;;;-148.94;100.00
46682;BME280;34101;53.430;-2.224;2023-02-18T03:22:06;42438.41;;;-148.94;100.00
46682;BME280;34101;53.430;-2.224;2023-02-18T03:24:37;42049.84;;;-148.94;100.00
46682;BME280;34101;53.430;-2.224;2023-02-18T03:27:10;41916.49;;;-148.94;100.00
46682;BME280;34101;53.430;-2.224;2023-02-18T03:29:41;42256.39;;;-148.94;100.00
46682;BME280;34101;53.430;-2.224;2023-02-18T03:32:12;41921.09;;;-148.94;100.00
46682;BME280;34101;53.430;-2.224;2023-02-18T03:34:46;42032.98;;;-148.94;100.00
46682;BME280;34101;53.430;-2.224;2023-02-18T03:37:15;41856.72;;;-148.94;100.00
46682;BME280;34101;53.430;-2.224;2023-02-18T03:39:45;41719.93;;;-148.94;100.00
46682;BME280;34101;53.430;-2.224;2023-02-18T03:42:15;41555.94;;;-148.94;100.00
46682;BME280;34101;53.430;-2.224;2023-02-18T03:44:43;41474.33;;;-148.94;100.00
46682;BME280;34101;53.430;-2.224;2023-02-18T03:47:11;41392.47;;;-148.94;100.00
46682;BME280;34101;53.430;-2.224;2023-02-18T03:49:39;41478.67;;;-148.94;100.00
46682;BME280;34101;53.430;-2.224;2023-02-18T03:52:06;41289.28;;;-148.94;100.00
46682;BME280;34101;53.430;-2.224;2023-02-18T03:54:34;41357.86;;;-148.94;100.00
46682;BME280;34101;53.430;-2.224;2023-02-18T03:57:01;41304.73;;;-148.94;100.00
46682;BME280;34101;53.430;-2.224;2023-02-18T03:59:28;41187.76;;;-148.94;100.00
46682;BME280;34101;53.430;-2.224;2023-02-18T04:01:57;40864.43;;;-148.94;100.00
46682;BME280;34101;53.430;-2.224;2023-02-18T04:04:24;41014.72;;;-148.94;100.00
46682;BME280;34101;53.430;-2.224;2023-02-18T04:06:51;41016.77;;;-148.94;100.00
46682;BME280;34101;53.430;-2.224;2023-02-18T04:09:19;40850.64;;;-148.94;100.00
46682;BME280;34101;53.430;-2.224;2023-02-18T04:11:46;40343.23;;;-148.94;100.00
46682;BME280;34101;53.430;-2.224;2023-02-18T04:14:14;40510.36;;;-148.94;100.00
46682;BME280;34101;53.430;-2.224;2023-02-18T04:16:41;40794.71;;;-148.94;100.00
46682;BME280;34101;53.430;-2.224;2023-02-18T04:19:08;40728.82;;;-148.94;100.00
46682;BME280;34101;53.430;-2.224;2023-02-18T04:21:36;40664.21;;;-148.94;100.00
46682;BME280;34101;53.430;-2.224;2023-02-18T04:24:03;40518.91;;;-148.94;100.00
46682;BME280;34101;53.430;-2.224;2023-02-18T04:26:30;40384.98;;;-148.94;100.00
46682;BME280;34101;53.430;-2.224;2023-02-18T04:28:58;40633.44;;;-148.94;100.00
46682;BME280;34101;53.430;-2.224;2023-02-18T04:31:25;40468.99;;;-148.94;100.00
46682;BME280;34101;53.430;-2.224;2023-02-18T04:33:53;40142.53;;;-148.94;100.00
46682;BME280;34101;53.430;-2.224;2023-02-18T04:36:20;40251.30;;;-148.94;100.00
46682;BME280;34101;53.430;-2.224;2023-02-18T04:38:47;40547.77;;;-148.94;100.00
46682;BME280;34101;53.430;-2.224;2023-02-18T04:41:15;40808.88;;;-148.94;100.00
46682;BME280;34101;53.430;-2.224;2023-02-18T04:43:42;40708.52;;;-148.94;100.00
46682;BME280;34101;53.430;-2.224;2023-02-18T04:46:09;40854.85;;;-148.94;100.00
46682;BME280;34101;53.430;-2.224;2023-02-18T04:48:37;40963.14;;;-148.94;100.00
46682;BME280;34101;53.430;-2.224;2023-02-18T04:51:05;41243.05;;;-148.94;100.00
46682;BME280;34101;53.430;-2.224;2023-02-18T04:53:32;41392.98;;;-148.94;100.00
46682;BME280;34101;53.430;-2.224;2023-02-18T04:56:00;41065.93;;;-148.94;100.00
46682;BME280;34101;53.430;-2.224;2023-02-18T04:58:27;41324.53;;;-148.94;100.00
46682;BME280;34101;53.430;-2.224;2023-02-18T05:00:58;41403.45;;;-148.94;100.00
46682;BME280;34101;53.430;-2.224;2023-02-18T05:03:26;41093.90;;;-148.94;100.00
46682;BME280;34101;53.430;-2.224;2023-02-18T05:05:53;41171.54;;;-148.94;100.00
46682;BME280;34101;53.430;-2.224;2023-02-18T05:08:21;41300.26;;;-148.94;100.00
46682;BME280;34101;53.430;-2.224;2023-02-18T05:10:48;41377.91;;;-148.94;100.00
46682;BME280;34101;53.430;-2.224;2023-02-18T05:13:15;41226.71;;;-148.94;100.00
46682;BME280;34101;53.430;-2.224;2023-02-18T05:15:43;41078.19;;;-148.94;100.00
46682;BME280;34101;53.430;-2.224;2023-02-18T05:18:10;41059.04;;;-148.94;100.00
46682;BME280;34101;53.430;-2.224;2023-02-18T05:20:37;41038.73;;;-148.94;100.00
46682;BME280;34101;53.430;-2.224;2023-02-18T05:23:05;41254.29;;;-148.94;100.00
46682;BME280;34101;53.430;-2.224;2023-02-18T05:25:32;41384.68;;;-148.94;100.00
46682;BME280;34101;53.430;-2.224;2023-02-18T05:27:59;41372.04;;;-148.94;100.00
46682;BME280;34101;53.430;-2.224;2023-02-18T05:30:27;41681.10;;;-148.94;100.00
46682;BME280;34101;53.430;-2.224;2023-02-18T05:32:55;42260.73;;;-148.94;100.00
46682;BME280;34101;53.430;-2.224;2023-02-18T05:35:22;42235.18;;;-148.94;100.00
46682;BME280;34101;53.430;-2.224;2023-02-18T05:37:49;42253.70;;;-148.94;100.00
46682;BME280;34101;53.430;-2.224;2023-02-18T05:40:17;42281.17;;;-148.94;100.00
46682;BME280;34101;53.430;-2.224;2023-02-18T05:42:44;42519.28;;;-148.94;100.00
46682;BME280;34101;53.430;-2.224;2023-02-18T05:45:11;42589.15;;;-148.94;100.00
46682;BME280;34101;53.430;-2.224;2023-02-18T05:47:39;42642.68;;;-148.94;100.00
46682;BME280;34101;53.430;-2.224;2023-02-18T05:50:07;42339.80;;;-148.94;100.00
46682;BME280;34101;53.430;-2.224;2023-02-18T05:52:34;42583.15;;;-148.94;100.00
46682;BME280;34101;53.430;-2.224;2023-02-18T05:55:02;42334.94;;;-148.94;100.00
46682;BME280;34101;53.430;-2.224;2023-02-18T05:57:29;41827.09;;;-148.94;100.00
46682;BME280;34101;53.430;-2.224;2023-02-18T05:59:56;41626.82;;;-148.94;100.00
46682;BME280;34101;53.430;-2.224;2023-02-18T06:02:24;41690.68;;;-148.94;100.00
46682;BME280;34101;53.430;-2.224;2023-02-18T06:04:51;41475.10;;;-148.94;100.00
46682;BME280;34101;53.430;-2.224;2023-02-18T06:07:19;41207.55;;;-148.94;100.00
46682;BME280;34101;53.430;-2.224;2023-02-18T06:09:46;41118.93;;;-148.94;100.00
46682;BME280;34101;53.430;-2.224;2023-02-18T06:12:13;40708.52;;;-148.94;100.00
46682;BME280;34101;53.430;-2.224;2023-02-18T06:14:41;40217.34;;;-148.94;100.00
46682;BME280;34101;53.430;-2.224;2023-02-18T06:17:09;40520.44;;;-148.94;100.00
46682;BME280;34101;53.430;-2.224;2023-02-18T06:19:37;40494.52;;;-148.94;100.00
46682;BME280;34101;53.430;-2.224;2023-02-18T06:22:05;40868.52;;;-148.94;100.00
46682;BME280;34101;53.430;-2.224;2023-02-18T06:24:33;40867.24;;;-148.94;100.00
46682;BME280;34101;53.430;-2.224;2023-02-18T06:27:00;40534.62;;;-148.94;100.00
46682;BME280;34101;53.430;-2.224;2023-02-18T06:29:28;40546.49;;;-148.94;100.00
46682;BME280;34101;53.430;-2.224;2023-02-18T06:31:55;40581.99;;;-148.94;100.00
46682;BME280;34101;53.430;-2.224;2023-02-18T06:34:24;40744.66;;;-148.94;100.00
46682;BME280;34101;53.430;-2.224;2023-02-18T06:36:52;40560.15;;;-148.94;100.00
46682;BME280;34101;53.430;-2.224;2023-02-18T06:39:20;40522.74;;;-148.94;100.00
46682;BME280;34101;53.430;-2.224;2023-02-18T06:41:47;40996.85;;;-148.94;100.00
46682;BME280;34101;53.430;-2.224;2023-02-18T06:44:15;41020.22;;;-148.94;100.00
46682;BME280;34101;53.430;-2.224;2023-02-18T06:46:42;41007.32;;;-148.94;100.00
46682;BME280;34101;53.430;-2.224;2023-02-18T06:49:09;40892.01;;;-148.94;100.00
46682;BME280;34101;53.430;-2.224;2023-02-18T06:51:37;41097.73;;;-148.94;100.00
46682;BME280;34101;53.430;-2.224;2023-02-18T06:54:04;40794.71;;;-148.94;100.00
46682;BME280;34101;53.430;-2.224;2023-02-18T06:56:32;40826.25;;;-148.94;100.00
46682;BME280;34101;53.430;-2.224;2023-02-18T06:58:59;40494.52;;;-148.94;100.00
46682;BME280;34101;53.430;-2.224;2023-02-18T07:01:26;40636.89;;;-148.94;100.00
46682;BME280;34101;53.430;-2.224;2023-02-18T07:03:54;40853.06;;;-148.94;100.00
46682;BME280;34101;53.430;-2.224;2023-02-18T07:06:23;41253.14;;;-148.94;100.00
46682;BME280;34101;53.430;-2.224;2023-02-18T07:08:50;41264.63;;;-148.94;100.00
46682;BME280;34101;53.430;-2.224;2023-02-18T07:11:18;41226.07;;;-148.94;100.00
46682;BME280;34101;53.430;-2.224;2023-02-18T07:13:45;41035.28;;;-148.94;100.00
46682;BME280;34101;53.430;-2.224;2023-02-18T07:16:12;41274.21;;;-148.94;100.00
46682;BME280;34101;53.430;-2.224;2023-02-18T07:18:40;41688.25;;;-148.94;100.00
46682;BME280;34101;53.430;-2.224;2023-02-18T07:21:07;41724.14;;;-148.94;100.00
46682;BME280;34101;53.430;-2.224;2023-02-18T07:23:34;41689.02;;;-148.94;100.00
46682;BME280;34101;53.430;-2.224;2023-02-18T07:26:04;41834.75;;;-148.94;100.00
46682;BME280;34101;53.430;-2.224;2023-02-18T07:28:31;42180.00;;;-148.94;100.00
46682;BME280;34101;53.430;-2.224;2023-02-18T07:30:58;42108.09;;;-148.94;100.00
46682;BME280;34101;53.430;-2.224;2023-02-18T07:33:26;42178.08;;;-148.94;100.00
46682;BME280;34101;53.430;-2.224;2023-02-18T07:35:54;42324.47;;;-148.94;100.00
46682;BME280;34101;53.430;-2.224;2023-02-18T07:38:23;41706.39;;;-148.94;100.00
46682;BME280;34101;53.430;-2.224;2023-02-18T07:40:51;41585.06;;;-148.94;100.00
46682;BME280;34101;53.430;-2.224;2023-02-18T07:43:18;41592.85;;;-148.94;100.00
46682;BME280;34101;53.430;-2.224;2023-02-18T07:45:46;41456.07;;;-148.94;100.00
46682;BME280;34101;53.430;-2.224;2023-02-18T07:48:15;41007.57;;;-148.94;100.00
46682;BME280;34101;53.430;-2.224;2023-02-18T07:50:44;41115.61;;;-148.94;100.00
46682;BME280;34101;53.430;-2.224;2023-02-18T07:53:14;41292.47;;;-148.94;100.00
46682;BME280;34101;53.430;-2.224;2023-02-18T07:55:41;40917.93;;;-148.94;100.00
46682;BME280;34101;53.430;-2.224;2023-02-18T07:58:08;40846.42;;;-148.94;100.00
46682;BME280;34101;53.430;-2.224;2023-02-18T08:00:36;40311.18;;;-148.94;100.00
46682;BME280;34101;53.430;-2.224;2023-02-18T08:03:04;40164.36;;;-148.94;100.00
46682;BME280;34101;53.430;-2.224;2023-02-18T08:05:31;39822.86;;;-148.94;100.00
46682;BME280;34101;53.430;-2.224;2023-02-18T08:07:59;40687.07;;;-148.94;100.00
46682;BME280;34101;53.430;-2.224;2023-02-18T08:10:26;40049.46;;;-148.94;100.00
46682;BME280;34101;53.430;-2.224;2023-02-18T08:12:54;39433.91;;;-148.94;100.00
46682;BME280;34101;53.430;-2.224;2023-02-18T08:15:21;39459.69;;;-148.94;100.00
46682;BME280;34101;53.430;-2.224;2023-02-18T08:17:48;39340.85;;;-148.94;100.00
46682;BME280;34101;53.430;-2.224;2023-02-18T08:20:16;39349.41;;;-148.94;100.00
46682;BME280;34101;53.430;-2.224;2023-02-18T08:22:43;39070.26;;;-148.94;100.00
46682;BME280;34101;53.430;-2.224;2023-02-18T08:25:10;39813.16;;;-148.94;100.00
46682;BME280;34101;53.430;-2.224;2023-02-18T08:27:37;38739.70;;;-148.94;100.00
46682;BME280;34101;53.430;-2.224;2023-02-18T08:30:06;37471.47;;;-148.94;100.00
46682;BME280;34101;53.430;-2.224;2023-02-18T08:32:34;37238.13;;;-148.94;100.00
46682;BME280;34101;53.430;-2.224;2023-02-18T08:35:01;35691.09;;;-148.94;100.00
46682;BME280;34101;53.430;-2.224;2023-02-18T08:37:29;34921.05;;;-148.94;100.00
46682;BME280;34101;53.430;-2.224;2023-02-18T08:39:56;33813.63;;;-148.94;100.00
46682;BME280;34101;53.430;-2.224;2023-02-18T08:42:24;33556.54;;;-148.94;100.00
46682;BME280;34101;53.430;-2.224;2023-02-18T08:44:51;32395.99;;;-148.94;100.00
46682;BME280;34101;53.430;-2.224;2023-02-18T08:47:18;32309.35;;;-148.94;100.00
46682;BME280;34101;53.430;-2.224;2023-02-18T08:49:45;31207.63;;;-148.94;100.00
46682;BME280;34101;53.430;-2.224;2023-02-18T08:52:13;31898.08;;;-148.94;100.00
46682;BME280;34101;53.430;-2.224;2023-02-18T08:54:40;31580.61;;;-148.94;100.00
46682;BME280;34101;53.430;-2.224;2023-02-18T08:57:07;31111.33;;;-148.94;100.00
46682;BME280;34101;53.430;-2.224;2023-02-18T08:59:34;30833.67;;;-148.94;100.00
46682;BME280;34101;53.430;-2.224;2023-02-18T09:02:03;30394.15;;;-148.94;100.00
46682;BME280;34101;53.430;-2.224;2023-02-18T09:04:31;30362.57;;;-148.94;100.00
46682;BME280;34101;53.430;-2.224;2023-02-18T09:06:59;30924.86;;;-148.94;100.00
46682;BME280;34101;53.430;-2.224;2023-02-18T09:09:27;30698.66;;;-148.94;100.00
46682;BME280;34101;53.430;-2.224;2023-02-18T09:11:54;30030.96;;;-148.94;100.00
46682;BME280;34101;53.430;-2.224;2023-02-18T09:14:22;29714.41;;;-148.94;100.00
46682;BME280;34101;53.430;-2.224;2023-02-18T09:16:49;29461.42;;;-148.94;100.00
46682;BME280;34101;53.430;-2.224;2023-02-18T09:19:16;29892.17;;;-148.94;100.00
46682;BME280;34101;53.430;-2.224;2023-02-18T09:21:43;29870.39;;;-148.94;100.00
46682;BME280;34101;53.430;-2.224;2023-02-18T09:24:11;29476.82;;;-148.94;100.00
46682;BME280;34101;53.430;-2.224;2023-02-18T09:26:38;29606.31;;;-148.94;100.00
46682;BME280;34101;53.430;-2.224;2023-02-18T09:29:05;29242.18;;;-148.94;100.00
46682;BME280;34101;53.430;-2.224;2023-02-18T09:31:33;29095.13;;;-148.94;100.00
46682;BME280;34101;53.430;-2.224;2023-02-18T09:34:02;29340.34;;;-148.94;100.00
46682;BME280;34101;53.430;-2.224;2023-02-18T09:36:30;29622.73;;;-148.94;100.00
46682;BME280;34101;53.430;-2.224;2023-02-18T09:38:58;29897.51;;;-148.94;100.00
46682;BME280;34101;53.430;-2.224;2023-02-18T09:41:31;29839.07;;;-148.94;100.00
46682;BME280;34101;53.430;-2.224;2023-02-18T09:44:05;31238.07;;;-148.94;100.00
46682;BME280;34101;53.430;-2.224;2023-02-18T09:46:38;31168.53;;;-148.94;100.00
46682;BME280;34101;53.430;-2.224;2023-02-18T09:49:12;30983.45;;;-148.94;100.00
46682;BME280;34101;53.430;-2.224;2023-02-18T09:51:40;30814.44;;;-148.94;100.00
46682;BME280;34101;53.430;-2.224;2023-02-18T09:54:09;30974.92;;;-148.94;100.00
46682;BME280;34101;53.430;-2.224;2023-02-18T09:56:38;30824.62;;;-148.94;100.00
46682;BME280;34101;53.430;-2.224;2023-02-18T09:59:13;30284.76;;;-148.94;100.00
46682;BME280;34101;53.430;-2.224;2023-02-18T10:01:42;29987.03;;;-148.94;100.00
46682;BME280;34101;53.430;-2.224;2023-02-18T10:04:16;29593.96;;;-148.94;100.00
46682;BME280;34101;53.430;-2.224;2023-02-18T10:06:45;29191.89;;;-148.94;100.00
46682;BME280;34101;53.430;-2.224;2023-02-18T10:09:18;28873.87;;;-148.94;100.00
46682;BME280;34101;53.430;-2.224;2023-02-18T10:11:50;28628.70;;;-148.94;100.00
46682;BME280;34101;53.430;-2.224;2023-02-18T10:14:18;29253.89;;;-148.94;100.00
46682;BME280;34101;53.430;-2.224;2023-02-18T10:16:48;29236.32;;;-148.94;100.00
46682;BME280;34101;53.430;-2.224;2023-02-18T10:19:22;29192.40;;;-148.94;100.00
46682;BME280;34101;53.430;-2.224;2023-02-18T10:21:51;29635.98;;;-148.94;100.00
46682;BME280;34101;53.430;-2.224;2023-02-18T10:24:26;29540.48;;;-148.94;100.00
46682;BME280;34101;53.430;-2.224;2023-02-18T10:26:54;29399.41;;;-148.94;100.00
46682;BME280;34101;53.430;-2.224;2023-02-18T10:29:24;29096.40;;;-148.94;100.00
46682;BME280;34101;53.430;-2.224;2023-02-18T10:31:55;28526.61;;;-148.94;100.00
46682;BME280;34101;53.430;-2.224;2023-02-18T10:34:36;27456.24;;;-148.94;100.00
46682;BME280;34101;53.430;-2.224;2023-02-18T10:37:14;27235.08;;;-148.94;100.00
46682;BME280;34101;53.430;-2.224;2023-02-18T10:39:55;26842.92;;;-148.94;100.00
46682;BME280;34101;53.430;-2.224;2023-02-18T10:42:34;26128.30;;;-148.94;100.00
46682;BME280;34101;53.430;-2.224;2023-02-18T10:45:12;26272.69;;;-148.94;100.00
46682;BME280;34101;53.430;-2.224;2023-02-18T10:47:49;26780.45;;;-148.94;100.00
46682;BME280;34101;53.430;-2.224;2023-02-18T10:50:27;27801.63;;;-148.94;100.00
46682;BME280;34101;53.430;-2.224;2023-02-18T10:53:00;27786.87;;;-148.94;100.00
46682;BME280;34101;53.430;-2.224;2023-02-18T10:55:38;28649.83;;;-148.94;100.00
46682;BME280;34101;53.430;-2.224;2023-02-18T10:58:25;28778.27;;;-148.94;100.00
46682;BME280;34101;53.430;-2.224;2023-02-18T11:00:53;30216.63;;;-148.94;100.00
46682;BME280;34101;53.430;-2.224;2023-02-18T11:03:22;30819.66;;;-148.94;100.00
46682;BME280;34101;53.430;-2.224;2023-02-18T11:05:51;30695.99;;;-148.94;100.00
46682;BME280;34101;53.430;-2.224;2023-02-18T11:08:23;30932.12;;;-148.94;100.00
46682;BME280;34101;53.430;-2.224;2023-02-18T11:10:52;31955.28;;;-148.94;100.00
46682;BME280;34101;53.430;-2.224;2023-02-18T11:13:25;32877.53;;;-148.94;100.00
46682;BME280;34101;53.430;-2.224;2023-02-18T11:15:55;32893.20;;;-148.94;100.00
46682;BME280;34101;53.430;-2.224;2023-02-18T11:18:32;33236.14;;;-148.94;100.00
46682;BME280;34101;53.430;-2.224;2023-02-18T11:21:04;32837.90;;;-148.94;100.00
46682;BME280;34101;53.430;-2.224;2023-02-18T11:23:45;33315.03;;;-148.94;100.00
46682;BME280;34101;53.430;-2.224;2023-02-18T11:26:14;32838.92;;;-148.94;100.00
46682;BME280;34101;53.430;-2.224;2023-02-18T11:28:45;32856.88;;;-148.94;100.00
46682;BME280;34101;53.430;-2.224;2023-02-18T11:31:19;32673.00;;;-148.94;100.00
46682;BME280;34101;53.430;-2.224;2023-02-18T11:33:50;32166.52;;;-148.94;100.00
46682;BME280;34101;53.430;-2.224;2023-02-18T11:36:22;32048.16;;;-148.94;100.00
46682;BME280;34101;53.430;-2.224;2023-02-18T11:38:53;31804.95;;;-148.94;100.00
46682;BME280;34101;53.430;-2.224;2023-02-18T11:41:32;32003.70;;;-148.94;100.00
46682;BME280;34101;53.430;-2.224;2023-02-18T11:44:00;32185.12;;;-148.94;100.00
46682;BME280;34101;53.430;-2.224;2023-02-18T11:46:28;32545.45;;;-148.94;100.00
46682;BME280;34101;53.430;-2.224;2023-02-18T11:48:56;32541.76;;;-148.94;100.00
46682;BME280;34101;53.430;-2.224;2023-02-18T11:51:39;32107.28;;;-148.94;100.00
46682;BME280;34101;53.430;-2.224;2023-02-18T11:54:22;32561.00;;;-148.94;100.00
46682;BME280;34101;53.430;-2.224;2023-02-18T11:56:55;33056.57;;;-148.94;100.00
46682;BME280;34101;53.430;-2.224;2023-02-18T11:59:24;32985.46;;;-148.94;100.00
46682;BME280;34101;53.430;-2.224;2023-02-18T12:01:59;32966.99;;;-148.94;100.00
46682;BME280;34101;53.430;-2.224;2023-02-18T12:04:30;32465.43;;;-148.94;100.00
46682;BME280;34101;53.430;-2.224;2023-02-18T12:07:10;32403.25;;;-148.94;100.00
46682;BME280;34101;53.430;-2.224;2023-02-18T12:09:43;32154.29;;;-148.94;100.00
46682;BME280;34101;53.430;-2.224;2023-02-18T12:12:14;32091.10;;;-148.94;100.00
46682;BME280;34101;53.430;-2.224;2023-02-18T12:14:44;31390.55;;;-148.94;100.00
46682;BME280;34101;53.430;-2.224;2023-02-18T12:17:22;31056.18;;;-148.94;100.00
46682;BME280;34101;53.430;-2.224;2023-02-18T12:20:06;31732.97;;;-148.94;100.00
46682;BME280;34101;53.430;-2.224;2023-02-18T12:22:42;31350.30;;;-148.94;100.00
46682;BME280;34101;53.430;-2.224;2023-02-18T12:25:23;30399.37;;;-148.94;100.00
46682;BME280;34101;53.430;-2.224;2023-02-18T12:28:01;29535.14;;;-148.94;100.00
46682;BME280;34101;53.430;-2.224;2023-02-18T12:30:44;27724.76;;;-148.94;100.00
46682;BME280;34101;53.430;-2.224;2023-02-18T12:33:21;27590.63;;;-148.94;100.00
46682;BME280;34101;53.430;-2.224;2023-02-18T12:36:02;27574.34;;;-148.94;100.00
46682;BME280;34101;53.430;-2.224;2023-02-18T12:38:51;27151.48;;;-148.94;100.00